Latest Coastal Weather Observations for Wilsons Promontory

IDT60701

Issued at 11:12 am EDT Tuesday 24 October 2017 (issued every 10 minutes, with the page automatically refreshed every 10 minutes)

About coastal observations | Map of coastal stations | Coastal observations for TAS | Marine services | Other Formats
Station Details ID: 085096 Name: WILSONS PROMONTORY LIGHTHOUSE Lat: -39.13 Lon: 146.42 Height: 95.0 m
Data from the previous 72 hours. | See also: Recent months at Wilsons Promontory
Date/Time
EDT
Temp
°C
Wind Pressure Rain since
9am
mm
Weather Cloud Vis
km
Sea
Height
m
Swell
Dir  Spd
kts
Gust
kts
hPa Trend Height
m
Period
s
Dir
24/11:00am 14.2 W 17 25 1016.6 - 0.0 - - - - - - -
24/10:30am 14.0 W 14 21 1016.6 - 0.0 - - - - - - -
24/10:00am 14.3 W 15 20 1016.6 - 0.0 - - - - - - -
24/09:30am 14.1 W 13 21 1016.5 - 0.0 - - - - - - -
24/09:00am 14.0 W 13 19 1016.4 - 0.0 - - - - - - -
24/08:30am 13.7 W 12 17 1016.4 - 0.0 - - - - - - -
24/08:00am 13.4 W 12 18 1016.1 - 0.0 - - - - - - -
24/07:30am 13.1 W 11 18 1015.9 - 0.0 - - - - - - -
24/07:00am 13.1 W 15 23 1015.6 - 0.0 - - - - - - -
24/06:30am 12.9 W 11 19 1015.6 - 0.0 - - - - - - -
24/06:00am 12.8 W 10 20 1015.5 - 0.0 - - - - - - -
24/05:30am 13.0 W 13 19 1015.6 - 0.0 - - - - - - -
24/05:00am 12.8 W 13 18 1015.6 - 0.0 - - - - - - -
24/04:30am 12.8 W 11 17 1015.4 - 0.0 - - - - - - -
24/04:00am 12.8 W 13 20 1015.5 - 0.0 - - - - - - -
24/03:30am 12.7 W 11 18 1015.4 - 0.0 - - - - - - -
24/03:00am 12.6 W 11 16 1015.7 - 0.0 - - - - - - -
24/02:30am 12.6 W 13 19 1015.7 - 0.0 - - - - - - -
24/02:00am 12.5 W 12 17 1015.9 - 0.0 - - - - - - -
24/01:30am 12.6 W 12 18 1016.3 - 0.0 - - - - - - -
24/01:00am 12.7 W 14 21 1016.6 - 0.0 - - - - - - -
24/12:30am 12.6 W 14 20 1016.7 - 0.0 - - - - - - -
24/12:00am 12.6 W 14 20 1016.8 - 0.0 - - - - - - -
 
Date/Time
EDT
Temp
°C
Wind Pressure Rain since
9am
mm
Weather Cloud Vis
km
Sea
Height
m
Swell
Dir  Spd
kts
Gust
kts
hPa Trend Height
m
Period
s
Dir
23/11:30pm 12.6 W 11 16 1017.0 - 0.0 - - - - - - -
23/11:00pm 12.7 W 12 17 1017.0 - 0.0 - - - - - - -
23/10:30pm 12.6 W 14 21 1017.0 - 0.0 - - - - - - -
23/10:00pm 12.6 W 14 23 1017.0 - 0.0 - - - - - - -
23/09:30pm 12.7 W 15 22 1016.8 - 0.0 - - - - - - -
23/09:00pm 12.7 W 18 25 1016.4 - 0.0 - - - - - - -
23/08:30pm 12.8 W 17 23 1016.0 - 0.0 - - - - - - -
23/08:00pm 12.7 W 17 24 1016.0 - 0.0 - - - - - - -
23/07:30pm 12.8 W 19 26 1016.0 - 0.0 - - - - - - -
23/07:00pm 13.0 W 19 25 1015.7 - 0.0 - - - - - - -
23/06:30pm 13.5 W 22 32 1015.4 - 0.0 - - - - - - -
23/06:13pm 13.2 W 21 32 1015.5 - 0.0 - - - - - - -
23/06:00pm 13.2 W 22 31 1015.5 - 0.0 - - - - - - -
23/05:31pm 13.2 W 17 27 1015.6 - 0.0 - - - - - - -
23/05:30pm 13.2 W 17 25 1015.6 - 0.0 - - - - - - -
23/05:00pm 13.7 W 16 26 1015.7 - 0.0 - - - - - - -
23/04:30pm 13.9 W 19 26 1015.7 - 0.0 - - - - - - -
23/04:02pm 13.6 W 17 27 1015.9 - 0.0 - - - - - - -
23/04:00pm 13.5 W 18 27 1015.8 - 0.0 - - - - - - -
23/03:31pm 14.0 W 20 30 1015.8 - 0.0 - - - - - - -
23/03:30pm 13.9 W 21 30 1015.7 - 0.0 - - - - - - -
23/03:02pm 14.3 W 23 33 1014.8 - 0.0 - - - - - - -
23/03:00pm 14.5 W 23 31 1015.0 - 0.0 - - - - - - -
23/02:39pm 14.7 W 27 37 1015.1 - 0.0 - - - - - - -
23/02:30pm 14.6 W 26 35 1015.3 - 0.0 - - - - - - -
23/02:00pm 13.6 W 28 38 1015.3 - 0.0 - - - - - - -
23/01:36pm 14.0 W 28 38 1015.3 - 0.0 - - - - - - -
23/01:30pm 14.3 W 28 36 1015.6 - 0.0 - - - - - - -
23/01:00pm 14.4 W 29 39 1015.7 - 0.0 - - - - - - -
23/12:45pm 14.3 W 27 37 1015.7 - 0.0 - - - - - - -
23/12:30pm 14.5 W 27 35 1015.8 - 0.0 - - - - - - -
23/12:00pm 14.3 W 27 40 1015.8 - 0.0 - - - - - - -
23/11:30am 13.6 W 29 40 1015.6 - 0.0 - - - - - - -
23/11:04am 13.4 W 28 38 1016.0 - 0.0 - - - - - - -
23/11:00am 13.1 W 29 38 1015.9 - 0.0 - - - - - - -
23/10:39am 13.4 W 25 35 1016.4 - 0.0 - - - - - - -
23/10:30am 13.1 W 27 35 1016.1 - 0.0 - - - - - - -
23/10:02am 12.6 W 23 34 1016.3 - 0.0 - - - - - - -
23/10:00am 12.6 W 23 31 1016.3 - 0.0 - - - - - - -
23/09:52am 12.9 W 21 31 1016.3 - 0.0 - - - - - - -
23/09:30am 12.3 W 22 30 1016.6 - 0.0 - - - - - - -
23/09:07am 12.3 W 18 28 1016.6 - 0.0 - - - - - - -
23/09:00am 12.2 W 19 27 1016.6 - 0.0 - - - - - - -
23/08:30am 11.7 W 18 25 1016.5 - 0.0 - - - - - - -
23/08:00am 11.5 W 20 27 1016.3 - 0.0 - - - - - - -
23/07:31am 11.6 W 19 30 1016.1 - 0.0 - - - - - - -
23/07:30am 11.5 W 19 27 1016.0 - 0.0 - - - - - - -
23/07:00am 11.5 W 19 29 1015.8 - 0.0 - - - - - - -
23/06:30am 11.6 W 22 32 1015.7 - 0.0 - - - - - - -
23/06:17am 11.6 W 21 32 1015.2 - 0.0 - - - - - - -
23/06:00am 11.4 W 20 28 1015.3 - 0.0 - - - - - - -
23/05:49am 11.4 W 19 29 1015.3 - 0.0 - - - - - - -
23/05:30am 11.2 W 20 27 1015.3 - 0.0 - - - - - - -
23/05:07am 11.3 W 20 31 1015.3 - 0.0 - - - - - - -
23/05:00am 11.2 W 18 25 1015.3 - 0.0 - - - - - - -
23/04:30am 11.1 W 20 28 1015.1 - 0.0 - - - - - - -
23/04:00am 11.1 W 20 27 1014.9 - 0.0 - - - - - - -
23/03:30am 11.3 W 21 28 1015.2 - 0.0 - - - - - - -
23/03:00am 11.4 W 21 31 1015.4 - 0.0 - - - - - - -
23/02:43am 11.2 W 21 31 1015.2 - 0.0 - - - - - - -
23/02:30am 11.4 W 20 29 1015.4 - 0.0 - - - - - - -
23/02:00am 11.5 W 22 32 1015.3 - 0.0 - - - - - - -
23/01:30am 11.4 W 23 30 1015.6 - 0.0 - - - - - - -
23/01:00am 11.5 W 21 27 1015.9 - 0.0 - - - - - - -
23/12:30am 11.4 W 20 28 1015.9 - 0.0 - - - - - - -
23/12:00am 11.5 W 21 29 1016.1 - 0.0 - - - - - - -
 
Date/Time
EDT
Temp
°C
Wind Pressure Rain since
9am
mm
Weather Cloud Vis
km
Sea
Height
m
Swell
Dir  Spd
kts
Gust
kts
hPa Trend Height
m
Period
s
Dir
22/11:30pm 11.6 WSW 25 37 1015.6 - 0.0 - - - - - - -
22/11:26pm 11.5 W 26 37 1015.5 - 0.0 - - - - - - -
22/11:00pm 11.7 W 22 31 1015.8 - 0.0 - - - - - - -
22/10:30pm 11.7 W 27 35 1015.9 - 0.0 - - - - - - -
22/10:03pm 12.1 W 21 31 1015.9 - 0.0 - - - - - - -
22/10:00pm 12.1 W 24 31 1016.0 - 0.0 - - - - - - -
22/09:50pm 12.2 W 25 35 1016.0 - 0.0 - - - - - - -
22/09:30pm 12.2 W 24 32 1015.9 - 0.0 - - - - - - -
22/09:00pm 12.2 W 24 34 1015.6 - 0.0 - - - - - - -
22/08:43pm 12.2 W 25 35 1015.6 - 0.0 - - - - - - -
22/08:30pm 12.1 W 26 33 1015.1 - 0.0 - - - - - - -
22/08:00pm 12.3 W 27 37 1014.7 - 0.0 - - - - - - -
22/07:30pm 12.4 W 22 33 1014.8 - 0.0 - - - - - - -
22/07:08pm 12.3 W 22 32 1014.7 - 0.0 - - - - - - -
22/07:00pm 12.3 W 24 32 1014.6 - 0.0 - - - - - - -
22/06:30pm 12.5 W 24 34 1014.7 - 0.0 - - - - - - -
22/06:29pm 12.5 W 24 34 1014.7 - 0.0 - - - - - - -
22/06:00pm 12.7 W 24 29 1014.5 - 0.0 - - - - - - -
22/05:49pm 12.8 W 21 31 1014.5 - 0.0 - - - - - - -
22/05:30pm 13.0 W 22 29 1014.6 - 0.0 - - - - - - -
22/05:00pm 12.9 W 23 30 1014.3 - 0.0 - - - - - - -
22/04:30pm 13.0 W 23 29 1014.2 - 0.0 - - - - - - -
22/04:00pm 13.7 W 24 30 1014.3 - 0.0 - - - - - - -
22/03:30pm 13.6 W 25 31 1014.3 - 0.0 - - - - - - -
22/03:00pm 13.8 W 23 30 1014.4 - 0.0 - - - - - - -
22/02:30pm 14.2 W 23 29 1014.5 - 0.0 - - - - - - -
22/02:00pm 13.6 W 21 32 1014.7 - 0.0 - - - - - - -
22/01:45pm 12.9 W 22 32 1014.5 - 0.0 - - - - - - -
22/01:30pm 14.1 W 21 28 1014.7 - 0.0 - - - - - - -
22/01:00pm 13.5 W 16 24 1015.0 - 0.0 - - - - - - -
22/12:37pm 13.5 W 19 29 1015.2 - 0.0 - - - - - - -
22/12:30pm 13.1 WSW 23 29 1015.0 - 0.0 - - - - - - -
22/12:22pm 13.0 WSW 21 31 1014.9 - 0.0 - - - - - - -
22/12:00pm 13.0 WSW 24 31 1015.3 - 0.0 - - - - - - -
22/11:30am 12.9 WSW 23 30 1015.3 - 0.0 - - - - - - -
22/11:01am 12.5 W 20 30 1015.4 - 0.0 - - - - - - -
22/11:00am 12.7 W 19 27 1015.5 - 0.0 - - - - - - -
22/10:30am 12.3 WSW 23 31 1015.2 - 0.0 - - - - - - -
22/10:25am 12.3 WSW 21 31 1015.1 - 0.0 - - - - - - -
22/10:00am 12.9 W 22 27 1015.3 - 0.0 - - - - - - -
22/09:30am 11.4 WSW 29 35 1014.4 - 0.0 - - - - - - -
22/09:01am 11.9 WSW 24 34 1015.0 - 0.0 - - - - - - -
22/09:00am 11.8 WSW 25 34 1014.9 - 2.2 - - - - - - -
22/08:30am 11.3 WSW 28 37 1014.3 - 2.0 - - - - - - -
22/08:07am 11.6 W 21 33 1014.5 - 1.4 - - - - - - -
22/08:00am 11.8 W 21 25 1014.8 - 1.2 - - - - - - -
22/07:30am 12.0 W 23 32 1014.4 - 1.2 - - - - - - -
22/07:01am 11.9 WSW 23 34 1014.0 - 1.2 - - - - - - -
22/07:00am 12.0 WSW 22 31 1014.1 - 1.2 - - - - - - -
22/06:46am 11.7 WSW 24 34 1014.1 - 1.2 - - - - - - -
22/06:30am 12.1 W 24 33 1014.1 - 1.2 - - - - - - -
22/06:00am 11.8 W 22 29 1013.9 - 1.2 - - - - - - -
22/05:30am 11.6 WSW 28 39 1013.9 - 1.2 - - - - - - -
22/05:22am 11.7 W 24 37 1013.7 - 1.2 - - - - - - -
22/05:00am 11.5 W 23 29 1014.1 - 1.2 - - - - - - -
22/04:30am 11.3 WSW 23 34 1014.2 - 1.2 - - - - - - -
22/04:24am 11.4 W 20 34 1014.4 - 1.2 - - - - - - -
22/04:00am 11.1 W 23 30 1014.6 - 1.2 - - - - - - -
22/03:31am 11.2 W 17 28 1014.8 - 1.0 - - - - - - -
22/03:30am 11.4 W 17 26 1015.0 - 1.0 - - - - - - -
22/03:12am 11.2 W 20 30 1015.1 - 1.0 - - - - - - -
22/03:00am 11.4 W 20 27 1015.2 - 1.0 - - - - - - -
22/02:30am 10.9 W 19 27 1015.4 - 1.0 - - - - - - -
22/02:19am 11.0 W 19 29 1015.3 - 1.0 - - - - - - -
22/02:00am 11.3 W 21 29 1015.9 - 1.0 - - - - - - -
22/01:30am 11.1 W 20 26 1016.5 - 1.0 - - - - - - -
22/01:00am 10.7 W 22 29 1016.8 - 0.8 - - - - - - -
22/12:30am 11.0 W 22 30 1016.9 - 0.6 - - - - - - -
22/12:18am 11.3 W 19 29 1017.2 - 0.6 - - - - - - -
22/12:00am 10.9 W 22 29 1017.2 - 0.4 - - - - - - -
 
Date/Time
EDT
Temp
°C
Wind Pressure Rain since
9am
mm
Weather Cloud Vis
km
Sea
Height
m
Swell
Dir  Spd
kts
Gust
kts
hPa Trend Height
m
Period
s
Dir
21/11:30pm 11.3 W 22 28 1017.6 - 0.4 - - - - - - -
21/11:00pm 12.0 W 22 31 1017.7 - 0.4 - - - - - - -
21/10:30pm 12.0 W 27 37 1017.5 - 0.4 - - - - - - -
21/10:14pm 11.9 W 23 33 1017.5 - 0.4 - - - - - - -
21/10:00pm 11.5 W 20 29 1018.0 - 0.4 - - - - - - -
21/09:31pm 11.4 W 22 34 1017.8 - 0.4 - - - - - - -
21/09:30pm 11.4 W 21 29 1018.1 - 0.4 - - - - - - -
21/09:00pm 11.3 W 22 30 1018.0 - 0.2 - - - - - - -
21/08:30pm 11.4 W 21 29 1018.4 - 0.2 - - - - - - -
21/08:13pm 11.2 W 21 31 1018.4 - 0.2 - - - - - - -
21/08:00pm 10.6 W 26 33 1018.4 - 0.2 - - - - - - -
21/07:30pm 11.1 W 21 31 1018.4 - 0.0 - - - - - - -
21/07:19pm 11.8 W 18 28 1018.6 - 0.0 - - - - - - -
21/07:00pm 12.0 W 19 27 1018.6 - 0.0 - - - - - - -
21/06:30pm 12.1 W 21 29 1018.6 - 0.0 - - - - - - -
21/06:20pm 12.4 W 19 30 1018.5 - 0.0 - - - - - - -
21/06:00pm 12.5 W 20 29 1018.7 - 0.0 - - - - - - -
21/05:30pm 12.9 W 26 32 1018.7 - 0.0 - - - - - - -
21/05:00pm 12.3 W 22 33 1018.9 - 0.0 - - - - - - -
21/04:38pm 11.8 W 22 32 1019.1 - 0.0 - - - - - - -
21/04:30pm 12.3 W 24 31 1019.2 - 0.0 - - - - - - -
21/04:00pm 11.6 W 23 32 1019.1 - 0.0 - - - - - - -
21/03:30pm 12.4 W 25 33 1019.5 - 0.0 - - - - - - -
21/03:12pm 11.9 W 23 36 1019.4 - 0.0 - - - - - - -
21/03:00pm 12.1 W 21 29 1019.7 - 0.0 - - - - - - -
21/02:50pm 12.1 W 22 32 1020.1 - 0.0 - - - - - - -
21/02:30pm 12.1 W 25 33 1020.2 - 0.0 - - - - - - -
21/02:03pm 11.6 WSW 27 37 1020.2 - 0.0 - - - - - - -
21/02:00pm 11.5 WSW 28 37 1020.0 - 0.0 - - - - - - -
21/01:50pm 11.5 W 24 37 1020.0 - 0.0 - - - - - - -
21/01:30pm 13.1 W 23 32 1020.6 - 0.0 - - - - - - -
21/01:01pm 13.0 W 23 33 1020.9 - 0.0 - - - - - - -
21/01:00pm 13.1 W 22 31 1020.9 - 0.0 - - - - - - -
21/12:57pm 13.1 W 21 31 1021.1 - 0.0 - - - - - - -
21/12:30pm 12.3 W 25 31 1021.4 - 0.0 - - - - - - -
21/12:01pm 12.7 W 20 30 1021.7 - 0.0 - - - - - - -
21/12:00pm 12.9 W 19 28 1021.7 - 0.0 - - - - - - -
21/11:30am 12.8 W 22 29 1022.1 - 0.0 - - - - - - -

Other Formats:

Comma delimited format used in spreadsheet applications
http://www.bom.gov.au/fwo/IDT60701/IDT60701.94893.axf

JavaScript Object Notation format (JSON) in row-major order
http://www.bom.gov.au/fwo/IDT60701/IDT60701.94893.json